Time;durP1;ratioP1;P1;durP2;ratioP2;P2;SDS_P1;SDS_P2;PMS_P1;PMS_P2;Temp;Humidity;BMP_temperature;BMP_pressure;BME280_temperature;BME280_humidity;BME280_pressure;Samples;Min_cycle;Max_cycle;Signal;HPM_P1;HPM_P2
2023/06/29 00:00:40;;;;;;;36.30;3.03;;;;;;;24.88;60.37;99573.44;7315372;19;129181;-39
2023/06/29 00:03:06;;;;;;;40.57;3.27;;;;;;;24.91;60.60;99575.75;7314475;19;130567;-39
2023/06/29 00:05:31;;;;;;;31.07;2.83;;;;;;;24.90;59.83;99580.19;7313546;19;130494;-42
2023/06/29 00:07:59;;;;;;;47.57;3.87;;;;;;;24.91;60.25;99573.13;7314456;19;128908;-39
2023/06/29 00:10:25;;;;;;;38.35;3.10;;;;;;;24.89;59.65;99581.16;7314582;19;129458;-38
2023/06/29 00:12:51;;;;;;;5.43;1.30;;;;;;;24.91;59.69;99578.38;7315013;19;129544;-40
2023/06/29 00:15:17;;;;;;;22.67;2.20;;;;;;;24.91;60.39;99584.47;7314998;19;129616;-38
2023/06/29 00:17:47;;;;;;;29.57;2.40;;;;;;;24.90;59.62;99574.94;7312395;19;129463;-41
2023/06/29 00:20:14;;;;;;;37.67;3.25;;;;;;;24.88;60.12;99578.69;7314267;19;129217;-39
2023/06/29 00:22:47;;;;;;;36.45;3.08;;;;;;;24.90;59.89;99582.00;7315053;19;129796;-39
2023/06/29 00:25:13;;;;;;;35.38;2.90;;;;;;;24.89;60.46;99580.38;7312292;19;129318;-41
2023/06/29 00:27:38;;;;;;;37.60;3.27;;;;;;;24.90;59.85;99577.56;7313355;19;130190;-41
2023/06/29 00:30:04;;;;;;;46.47;3.70;;;;;;;24.90;60.06;99582.00;7314091;19;128848;-40
2023/06/29 00:32:30;;;;;;;38.67;3.37;;;;;;;24.90;60.42;99579.38;7312143;19;129468;-39
2023/06/29 00:34:55;;;;;;;29.90;2.63;;;;;;;24.90;59.97;99577.56;7314858;19;129600;-41
2023/06/29 00:37:20;;;;;;;34.13;3.00;;;;;;;24.90;59.89;99576.75;7314225;19;128968;-41
2023/06/29 00:39:46;;;;;;;28.77;2.53;;;;;;;24.84;60.02;99565.03;7314157;19;128832;-38
2023/06/29 00:42:11;;;;;;;20.63;2.20;;;;;;;24.87;60.23;99571.81;7312458;19;129695;-42
2023/06/29 00:44:36;;;;;;;23.97;2.30;;;;;;;24.90;59.67;99567.06;7312878;19;129442;-39
2023/06/29 00:47:02;;;;;;;33.60;2.80;;;;;;;24.91;60.27;99567.84;7313322;19;129155;-39
2023/06/29 00:49:28;;;;;;;19.77;2.17;;;;;;;24.87;59.92;99563.91;7313925;19;128867;-38
2023/06/29 00:51:54;;;;;;;29.30;2.70;;;;;;;24.89;59.72;99565.38;7311377;19;129167;-40
2023/06/29 00:54:20;;;;;;;22.00;2.13;;;;;;;24.90;59.92;99571.47;7312920;19;129499;-41
2023/06/29 00:56:46;;;;;;;50.33;3.50;;;;;;;24.89;60.34;99569.84;7313980;19;128947;-41
2023/06/29 00:59:12;;;;;;;32.10;2.50;;;;;;;24.87;60.36;99566.53;7313585;19;129538;-40
2023/06/29 01:01:39;;;;;;;32.07;2.53;;;;;;;24.89;59.78;99562.75;7311643;19;129035;-40
2023/06/29 01:04:05;;;;;;;24.80;2.28;;;;;;;24.88;60.44;99562.91;7313503;19;130376;-39
2023/06/29 01:06:34;;;;;;;26.63;2.25;;;;;;;24.88;59.79;99555.88;7310528;19;129416;-39
2023/06/29 01:09:05;;;;;;;25.30;2.28;;;;;;;24.88;60.03;99557.66;7314078;19;129298;-40
2023/06/29 01:11:36;;;;;;;23.95;2.13;;;;;;;24.87;60.60;99556.88;7310435;19;130074;-39
2023/06/29 01:14:05;;;;;;;24.45;2.33;;;;;;;24.88;60.62;99557.66;7313073;19;129350;-41
2023/06/29 01:16:32;;;;;;;23.52;2.22;;;;;;;24.86;59.71;99554.41;7312459;19;129712;-42
2023/06/29 01:19:01;;;;;;;42.55;3.15;;;;;;;24.87;60.12;99561.28;7312524;19;129091;-41
2023/06/29 01:21:28;;;;;;;23.75;2.13;;;;;;;24.87;60.15;99558.66;7311489;19;129397;-40
2023/06/29 01:23:56;;;;;;;34.22;2.83;;;;;;;24.86;60.17;99549.13;7312687;19;129375;-41
2023/06/29 01:26:22;;;;;;;28.88;2.55;;;;;;;24.90;60.33;99550.44;7311846;19;129767;-41
2023/06/29 01:28:50;;;;;;;57.07;4.17;;;;;;;24.90;60.45;99547.81;7313393;19;128728;-39
2023/06/29 01:31:15;;;;;;;31.98;2.47;;;;;;;24.87;60.38;99543.72;7311997;19;129137;-38
2023/06/29 01:33:40;;;;;;;23.97;2.43;;;;;;;24.88;60.47;99547.13;7312379;19;129521;-38
2023/06/29 01:36:15;;;;;;;19.33;1.93;;;;;;;24.89;60.51;99548.81;7311500;19;129082;-39
2023/06/29 01:38:52;;;;;;;34.35;3.05;;;;;;;24.91;60.13;99546.81;7309869;19;128687;-38
2023/06/29 01:41:19;;;;;;;46.53;3.63;;;;;;;24.87;59.84;99538.44;7310012;19;129504;-38
2023/06/29 01:43:46;;;;;;;25.95;2.40;;;;;;;24.87;60.44;99542.88;7312060;19;129528;-38
2023/06/29 01:46:13;;;;;;;23.30;2.05;;;;;;;24.79;60.63;99532.34;7310869;19;130059;-39
2023/06/29 01:48:38;;;;;;;;;;;;;;;24.96;60.38;99540.09;7311940;19;129188;-39
2023/06/29 01:51:06;;;;;;;41.63;3.03;;;;;;;24.88;60.11;99541.88;7310932;19;129516;-39
2023/06/29 01:53:35;;;;;;;44.35;3.25;;;;;;;24.87;60.24;99540.25;7311472;19;129943;-39
2023/06/29 01:56:00;;;;;;;30.23;2.53;;;;;;;24.87;59.72;99540.25;7312276;19;129146;-38
2023/06/29 01:58:26;;;;;;;22.23;2.07;;;;;;;24.86;59.82;99542.03;7311894;19;128867;-38
2023/06/29 02:00:51;;;;;;;41.60;3.07;;;;;;;24.87;60.12;99541.09;7310543;19;130192;-39
2023/06/29 02:03:16;;;;;;;13.33;1.30;;;;;;;24.89;60.10;99538.28;7312375;19;129281;-39
2023/06/29 02:05:42;;;;;;;40.87;3.00;;;;;;;24.88;59.85;99536.63;7310051;19;129300;-39
2023/06/29 02:08:07;;;;;;;35.00;2.97;;;;;;;24.87;60.10;99541.09;7311606;19;129539;-39
2023/06/29 02:10:32;;;;;;;49.17;3.57;;;;;;;24.88;59.66;99539.25;7311004;19;130099;-40
2023/06/29 02:12:58;;;;;;;9.80;1.47;;;;;;;24.86;60.42;99542.03;7312177;19;131406;-38
2023/06/29 02:15:23;;;;;;;22.37;2.20;;;;;;;24.78;59.75;99531.50;7310660;19;129436;-38
2023/06/29 02:17:48;;;;;;;45.83;3.20;;;;;;;24.87;60.46;99540.25;7312091;19;129429;-39
2023/06/29 02:20:14;;;;;;;49.50;3.60;;;;;;;24.88;59.74;99539.25;7310469;19;129147;-39
2023/06/29 02:22:39;;;;;;;51.77;3.77;;;;;;;24.88;60.35;99541.88;7311244;19;129722;-39
2023/06/29 02:25:05;;;;;;;27.83;2.57;;;;;;;24.87;60.07;99551.59;7309936;19;129308;-38
2023/06/29 02:27:30;;;;;;;31.30;2.40;;;;;;;24.87;60.06;99550.78;7311236;19;129428;-37
2023/06/29 02:29:55;;;;;;;46.07;3.33;;;;;;;24.88;60.11;99547.13;7309760;19;129050;-39
2023/06/29 02:32:21;;;;;;;23.00;1.80;;;;;;;24.87;60.39;99545.50;7308926;19;129382;-38
2023/06/29 02:34:46;;;;;;;21.03;2.03;;;;;;;24.81;60.11;99538.28;7310879;19;128915;-39
2023/06/29 02:37:11;;;;;;;26.97;2.27;;;;;;;24.85;60.48;99543.03;7311227;19;129093;-39
2023/06/29 02:39:37;;;;;;;28.97;2.67;;;;;;;24.88;60.03;99547.13;7310703;19;128960;-38
2023/06/29 02:42:02;;;;;;;23.77;2.30;;;;;;;24.87;60.15;99550.78;7307061;19;130023;-39
2023/06/29 02:44:27;;;;;;;22.93;2.00;;;;;;;24.86;60.14;99557.03;7310315;19;129196;-39
2023/06/29 02:46:53;;;;;;;42.27;3.23;;;;;;;24.88;59.75;99552.41;7308492;19;128926;-39
2023/06/29 02:49:18;;;;;;;33.00;2.53;;;;;;;24.88;60.19;99541.88;7312425;19;129167;-40
2023/06/29 02:51:43;;;;;;;34.33;2.47;;;;;;;24.88;60.02;99552.41;7315632;19;130328;-41
2023/06/29 02:54:09;;;;;;;23.77;2.13;;;;;;;24.88;60.35;99552.41;7316923;19;129246;-39
2023/06/29 02:56:34;;;;;;;45.77;3.30;;;;;;;24.87;59.71;99550.78;7316743;19;128855;-39
2023/06/29 02:59:00;;;;;;;21.07;1.87;;;;;;;24.87;59.73;99556.03;7317428;19;129826;-41
2023/06/29 03:01:25;;;;;;;20.60;1.97;;;;;;;24.87;60.07;99553.41;7315770;19;129307;-40
2023/06/29 03:03:51;;;;;;;38.80;3.03;;;;;;;24.86;60.14;99549.13;7316457;19;129226;-39
2023/06/29 03:06:16;;;;;;;44.00;3.17;;;;;;;24.80;60.49;99534.81;7314820;19;128884;-40
2023/06/29 03:08:41;;;;;;;9.93;1.40;;;;;;;24.86;59.60;99551.75;7315510;19;130098;-40
2023/06/29 03:11:07;;;;;;;23.20;1.90;;;;;;;24.78;59.82;99535.94;7315423;19;129948;-39
2023/06/29 03:13:32;;;;;;;49.07;3.50;;;;;;;24.85;59.66;99552.72;7317429;19;129198;-42
2023/06/29 03:16:00;;;;;;;30.00;2.43;;;;;;;24.82;60.34;99547.81;7317110;19;128982;-41
2023/06/29 03:18:26;;;;;;;44.72;3.05;;;;;;;24.85;59.74;99552.72;7316801;19;130194;-39
2023/06/29 03:20:51;;;;;;;21.67;1.83;;;;;;;24.75;60.42;99536.28;7316665;19;129794;-37
2023/06/29 03:23:16;;;;;;;42.00;2.97;;;;;;;24.86;60.16;99547.31;7316837;19;129585;-41
2023/06/29 03:25:42;;;;;;;36.57;2.63;;;;;;;24.85;59.81;99548.31;7315382;19;129168;-40
2023/06/29 03:28:07;;;;;;;43.83;3.27;;;;;;;24.86;60.44;99549.13;7316519;19;129425;-38
2023/06/29 03:30:33;;;;;;;21.93;1.97;;;;;;;24.86;60.36;99554.41;7316225;19;129161;-40
2023/06/29 03:32:59;;;;;;;40.10;3.03;;;;;;;24.86;60.13;99552.56;7316887;19;128829;-39
2023/06/29 03:35:25;;;;;;;23.98;2.20;;;;;;;24.84;59.77;99549.25;7316944;19;129200;-39
2023/06/29 03:37:50;;;;;;;29.90;2.47;;;;;;;24.78;59.88;99535.94;7316294;19;129278;-40
2023/06/29 03:40:16;;;;;;;28.50;2.27;;;;;;;24.87;60.03;99556.03;7316989;19;130186;-38
2023/06/29 03:42:42;;;;;;;49.37;3.37;;;;;;;24.87;60.39;99545.50;7316609;19;129234;-40
2023/06/29 03:45:07;;;;;;;21.93;2.20;;;;;;;24.85;60.03;99555.34;7316490;19;129941;-38
2023/06/29 03:47:33;;;;;;;30.10;2.37;;;;;;;24.86;60.15;99555.19;7315378;19;130204;-38
2023/06/29 03:49:58;;;;;;;28.80;2.30;;;;;;;24.86;59.65;99549.94;7314824;19;129141;-39
2023/06/29 03:52:23;;;;;;;24.37;2.17;;;;;;;24.87;59.78;99550.78;7311205;19;129283;-39
2023/06/29 03:54:49;;;;;;;38.00;2.97;;;;;;;24.85;60.14;99553.56;7315087;19;128865;-40
2023/06/29 03:57:15;;;;;;;31.00;2.60;;;;;;;24.85;59.78;99552.72;7315434;19;130128;-41
2023/06/29 03:59:40;;;;;;;30.83;2.37;;;;;;;24.87;59.55;99553.41;7314904;19;129667;-41
2023/06/29 04:02:06;;;;;;;41.30;3.17;;;;;;;24.88;60.10;99557.66;7308397;19;128933;-40
2023/06/29 04:04:31;;;;;;;39.53;3.13;;;;;;;24.85;59.70;99547.47;7311049;19;129602;-39
2023/06/29 04:06:56;;;;;;;146.50;10.03;;;;;;;24.86;60.06;99543.88;7308133;19;129985;-40
2023/06/29 04:09:22;;;;;;;39.17;3.10;;;;;;;24.86;59.63;99552.56;7310938;19;129735;-39
2023/06/29 04:11:47;;;;;;;37.93;2.97;;;;;;;24.85;60.39;99550.94;7309807;19;128913;-40
2023/06/29 04:14:13;;;;;;;53.37;3.77;;;;;;;24.83;60.10;99544.16;7311311;19;129157;-40
2023/06/29 04:16:38;;;;;;;45.67;3.57;;;;;;;24.86;60.05;99538.63;7310220;19;131269;-39
2023/06/29 04:19:03;;;;;;;56.87;4.07;;;;;;;24.85;60.10;99543.03;7303073;19;130323;-39
2023/06/29 04:21:29;;;;;;;27.33;2.47;;;;;;;24.84;60.40;99540.56;7312875;19;129255;-40
2023/06/29 04:23:54;;;;;;;35.13;2.90;;;;;;;24.85;60.35;99544.84;7311617;19;131068;-39
2023/06/29 04:26:22;;;;;;;35.87;2.77;;;;;;;24.85;59.81;99547.47;7310955;19;130173;-40
2023/06/29 04:28:48;;;;;;;62.20;4.32;;;;;;;24.84;59.89;99535.31;7309884;19;130559;-39
2023/06/29 04:31:13;;;;;;;25.33;2.10;;;;;;;24.84;60.27;99540.56;7312626;19;129463;-39
2023/06/29 04:33:39;;;;;;;24.17;2.20;;;;;;;24.87;60.31;99535.00;7313073;19;129140;-39
2023/06/29 04:36:04;;;;;;;38.70;3.30;;;;;;;24.89;59.94;99543.53;7313063;19;130037;-39
2023/06/29 04:38:31;;;;;;;56.70;4.13;;;;;;;24.90;60.34;99539.91;7313442;19;129449;-37
2023/06/29 04:41:03;;;;;;;23.90;1.92;;;;;;;24.93;60.05;99542.22;7313223;19;129587;-38
2023/06/29 04:43:32;;;;;;;21.20;1.83;;;;;;;24.96;60.06;99544.53;7314207;19;129281;-37
2023/06/29 04:46:00;;;;;;;30.75;2.50;;;;;;;24.99;60.00;99533.69;7310847;19;129903;-39
2023/06/29 04:48:32;;;;;;;38.45;2.70;;;;;;;25.01;59.66;99537.78;7314167;19;129350;-38
2023/06/29 04:51:04;;;;;;;44.30;3.28;;;;;;;24.95;60.04;99529.72;7309216;19;129302;-40
2023/06/29 04:53:33;;;;;;;24.88;2.10;;;;;;;24.98;59.87;99538.13;7315095;19;129530;-39
2023/06/29 04:55:59;;;;;;;28.85;2.67;;;;;;;24.96;60.02;99539.25;7313304;19;130209;-41
2023/06/29 04:58:25;;;;;;;28.80;2.60;;;;;;;24.95;59.52;99542.88;7313038;19;129210;-41
2023/06/29 05:00:50;;;;;;;103.27;7.57;;;;;;;24.96;59.34;99534.81;7311203;19;129210;-40
2023/06/29 05:03:16;;;;;;;11.27;1.57;;;;;;;24.96;59.04;99539.25;7313060;19;128953;-38
2023/06/29 05:05:41;;;;;;;61.03;4.40;;;;;;;24.98;59.53;99535.50;7307422;19;130743;-38
2023/06/29 05:08:06;;;;;;;79.23;6.03;;;;;;;24.95;59.44;99542.88;7300278;19;130841;-38
2023/06/29 05:10:32;;;;;;;59.50;4.63;;;;;;;24.95;58.92;99537.63;7307332;19;129520;-39
2023/06/29 05:12:58;;;;;;;32.63;2.83;;;;;;;24.94;58.61;99542.06;7311490;19;129055;-40
2023/06/29 05:15:23;;;;;;;17.87;1.93;;;;;;;24.96;59.31;99534.81;7309543;19;129305;-38
2023/06/29 05:17:48;;;;;;;39.43;3.27;;;;;;;24.98;58.74;99547.81;7311832;19;129662;-40
2023/06/29 05:20:17;;;;;;;65.10;4.83;;;;;;;24.95;58.76;99540.25;7307652;19;129750;-38
2023/06/29 05:22:42;;;;;;;30.77;2.60;;;;;;;24.93;59.07;99539.59;7310074;19;129661;-40
2023/06/29 05:25:09;;;;;;;50.77;3.53;;;;;;;24.96;59.07;99544.53;7310067;19;130136;-39
2023/06/29 05:27:34;;;;;;;42.45;3.30;;;;;;;24.98;58.88;99535.50;7311856;19;130864;-38
2023/06/29 05:29:59;;;;;;;35.60;3.03;;;;;;;24.99;58.99;99537.13;7310760;19;129051;-39
2023/06/29 05:32:25;;;;;;;34.70;2.87;;;;;;;25.03;59.14;99540.25;7307704;19;129734;-37
2023/06/29 05:34:51;;;;;;;26.53;2.40;;;;;;;25.00;59.13;99540.59;7311609;19;129435;-39
2023/06/29 05:37:16;;;;;;;48.30;3.50;;;;;;;24.94;58.56;99530.72;7312608;19;129192;-39
2023/06/29 05:39:41;;;;;;;169.33;11.50;;;;;;;25.02;58.91;99541.25;7304818;19;129232;-38
2023/06/29 05:42:07;;;;;;;24.90;2.10;;;;;;;24.97;58.91;99536.50;7304585;19;129052;-41
2023/06/29 05:44:32;;;;;;;25.60;2.50;;;;;;;24.94;58.39;99546.50;7311178;19;130998;-38
2023/06/29 05:46:57;;;;;;;49.23;4.00;;;;;;;24.92;58.30;99543.22;7310062;19;130496;-39
2023/06/29 05:49:24;;;;;;;28.70;2.70;;;;;;;24.91;58.34;99533.66;7311466;19;128949;-39
2023/06/29 05:51:49;;;;;;;29.60;2.80;;;;;;;24.84;58.67;99520.34;7310516;19;128932;-39
2023/06/29 05:54:14;;;;;;;27.80;2.60;;;;;;;24.97;57.65;99535.66;7312366;19;129329;-39
2023/06/29 05:56:40;;;;;;;47.17;3.43;;;;;;;24.95;57.92;99537.63;7312264;19;130584;-38
2023/06/29 05:59:05;;;;;;;35.40;3.20;;;;;;;24.96;57.69;99539.25;7311274;19;128894;-39
2023/06/29 06:01:30;;;;;;;17.00;2.13;;;;;;;24.93;57.54;99534.31;7309726;19;129735;-38
2023/06/29 06:03:56;;;;;;;42.93;3.63;;;;;;;24.94;57.69;99533.38;7310812;19;129084;-38
2023/06/29 06:06:21;;;;;;;52.37;4.23;;;;;;;24.93;56.93;99531.69;7310217;19;129074;-39
2023/06/29 06:08:47;;;;;;;52.83;4.53;;;;;;;24.92;57.75;99532.69;7311247;19;128819;-41
2023/06/29 06:11:12;;;;;;;31.57;2.90;;;;;;;24.95;57.15;99537.63;7310237;19;129643;-39
2023/06/29 06:13:37;;;;;;;44.83;3.60;;;;;;;24.95;57.12;99537.63;7310639;19;129644;-39
2023/06/29 06:16:04;;;;;;;32.07;2.80;;;;;;;24.95;57.14;99535.00;7311429;19;129203;-38
2023/06/29 06:18:30;;;;;;;31.63;2.92;;;;;;;24.96;56.61;99534.00;7310835;19;129182;-41
2023/06/29 06:20:55;;;;;;;51.70;4.27;;;;;;;24.95;56.38;99532.38;7309118;19;129238;-43
2023/06/29 06:23:21;;;;;;;61.27;4.57;;;;;;;24.90;56.18;99524.97;7311334;19;129006;-39
2023/06/29 06:25:47;;;;;;;47.78;3.88;;;;;;;24.95;56.46;99532.38;7317134;19;130717;-39
2023/06/29 06:28:12;;;;;;;27.10;2.53;;;;;;;24.96;56.12;99536.63;7317123;19;129337;-41
2023/06/29 06:30:38;;;;;;;23.70;2.57;;;;;;;24.95;56.21;99527.09;7317217;19;129353;-39
2023/06/29 06:33:04;;;;;;;47.90;4.00;;;;;;;24.95;56.43;99527.09;7317194;19;129152;-38
2023/06/29 06:35:29;;;;;;;27.13;2.67;;;;;;;24.96;55.40;99523.47;7318892;19;131111;-39
2023/06/29 06:37:55;;;;;;;29.17;3.13;;;;;;;24.97;55.61;99520.72;7317701;19;128790;-39
2023/06/29 06:40:20;;;;;;;38.83;3.73;;;;;;;24.90;55.80;99509.19;7316814;19;129050;-39
2023/06/29 06:42:46;;;;;;;37.70;3.50;;;;;;;24.95;55.50;99524.47;7317640;19;129380;-39
2023/06/29 06:45:13;;;;;;;35.07;3.43;;;;;;;24.96;55.45;99523.47;7317452;19;129763;-38
2023/06/29 06:47:39;;;;;;;33.25;2.95;;;;;;;24.96;55.27;99518.22;7316906;19;128829;-40
2023/06/29 06:50:05;;;;;;;7.80;1.67;;;;;;;24.87;55.55;99506.88;7317599;19;129129;-38
2023/06/29 06:52:30;;;;;;;41.80;3.53;;;;;;;24.96;55.72;99518.22;7314594;19;129889;-40
2023/06/29 06:54:56;;;;;;;24.67;2.40;;;;;;;24.97;55.70;99525.97;7318050;19;129589;-40
2023/06/29 06:57:22;;;;;;;14.50;2.07;;;;;;;24.98;54.83;99516.25;7317710;19;128817;-39
2023/06/29 06:59:48;;;;;;;37.40;3.30;;;;;;;24.98;55.18;99517.09;7316401;19;129185;-38
2023/06/29 07:02:13;;;;;;;37.87;3.43;;;;;;;24.98;55.38;99522.34;7314845;19;129673;-40
2023/06/29 07:04:39;;;;;;;27.57;3.00;;;;;;;24.99;54.97;99528.44;7318460;19;129635;-37
2023/06/29 07:07:06;;;;;;;23.40;2.40;;;;;;;24.99;55.12;99518.72;7315939;19;129908;-39
2023/06/29 07:09:31;;;;;;;36.85;3.40;;;;;;;25.01;54.92;99515.91;7315983;19;130354;-41
2023/06/29 07:11:58;;;;;;;32.67;3.10;;;;;;;25.03;55.57;99517.41;7314439;19;129463;-42
2023/06/29 07:14:24;;;;;;;34.20;3.33;;;;;;;25.02;55.68;99509.69;7316960;19;130344;-39
2023/06/29 07:16:49;;;;;;;16.90;2.13;;;;;;;25.03;55.00;99504.25;7316463;19;129430;-42
2023/06/29 07:19:16;;;;;;;47.50;3.47;;;;;;;25.02;55.74;99517.59;7315821;19;129020;-41
2023/06/29 07:21:41;;;;;;;;;;;;;;;25.08;55.35;99509.03;7315525;19;129673;-40
2023/06/29 07:24:07;;;;;;;28.63;2.53;;;;;;;25.03;55.49;99509.53;7316033;19;130570;-42
2023/06/29 07:26:33;;;;;;;19.37;2.33;;;;;;;25.06;55.31;99509.19;7314864;19;129149;-42
2023/06/29 07:28:59;;;;;;;28.70;2.87;;;;;;;25.04;55.34;99499.84;7316015;19;130108;-42
2023/06/29 07:31:26;;;;;;;55.20;4.13;;;;;;;25.03;54.78;99501.63;7312755;19;130357;-39
2023/06/29 07:33:53;;;;;;;38.92;3.28;;;;;;;25.01;55.66;99498.34;7313173;19;129429;-39
2023/06/29 07:36:19;;;;;;;43.05;3.28;;;;;;;25.02;55.34;99496.53;7313732;19;128920;-39
2023/06/29 07:38:44;;;;;;;40.35;3.17;;;;;;;25.02;54.61;99486.84;7314519;19;128926;-39
2023/06/29 07:41:10;;;;;;;24.77;2.40;;;;;;;24.98;54.93;99485.53;7316007;19;129791;-40
2023/06/29 07:43:35;;;;;;;33.37;3.07;;;;;;;24.95;54.48;99482.38;7314670;19;129716;-42
2023/06/29 07:46:01;;;;;;;36.33;2.87;;;;;;;24.87;54.63;99467.44;7313959;19;129535;-40
2023/06/29 07:48:28;;;;;;;39.53;3.22;;;;;;;24.98;55.13;99495.22;7314465;19;129050;-40
2023/06/29 07:50:53;;;;;;;24.17;2.58;;;;;;;24.97;54.10;99488.31;7315247;19;129341;-40
2023/06/29 07:53:19;;;;;;;27.63;2.73;;;;;;;24.99;54.87;99481.09;7314452;19;129456;-40
2023/06/29 07:55:44;;;;;;;27.20;2.53;;;;;;;25.00;54.45;99474.84;7314252;19;129039;-42
2023/06/29 07:58:09;;;;;;;52.53;3.93;;;;;;;25.00;54.89;99472.19;7314584;19;129296;-40
2023/06/29 08:00:35;;;;;;;42.63;3.60;;;;;;;24.99;55.00;99474.00;7309721;19;129421;-41
2023/06/29 08:03:00;;;;;;;53.03;4.00;;;;;;;24.99;54.81;99468.75;7310072;19;130071;-42
2023/06/29 08:05:26;;;;;;;57.60;4.23;;;;;;;25.01;55.18;99469.41;7310025;19;129271;-40
2023/06/29 08:07:51;;;;;;;41.00;3.20;;;;;;;24.98;54.61;99474.16;7314058;19;129768;-39
2023/06/29 08:10:17;;;;;;;26.43;2.63;;;;;;;24.99;55.34;99470.56;7314682;19;129417;-42
2023/06/29 08:12:42;;;;;;;23.33;2.50;;;;;;;25.00;55.01;99472.19;7314754;19;131097;-40
2023/06/29 08:15:09;;;;;;;23.43;2.40;;;;;;;24.87;55.52;99461.34;7314385;19;129346;-39
2023/06/29 08:17:34;;;;;;;33.20;2.72;;;;;;;24.91;54.94;99467.91;7314108;19;129241;-41
2023/06/29 08:20:00;;;;;;;24.93;2.40;;;;;;;24.84;55.54;99457.22;7314422;19;130190;-41
2023/06/29 08:22:26;;;;;;;47.10;3.33;;;;;;;24.95;54.59;99474.50;7311889;19;129295;-40
2023/06/29 08:24:51;;;;;;;29.37;3.10;;;;;;;25.00;55.18;99464.31;7314579;19;129547;-42
2023/06/29 08:27:17;;;;;;;37.70;3.20;;;;;;;24.98;55.20;99461.84;7310935;19;131186;-40
2023/06/29 08:29:43;;;;;;;58.27;4.40;;;;;;;24.99;54.94;99465.31;7314423;19;129912;-38
2023/06/29 08:32:09;;;;;;;24.23;2.10;;;;;;;25.01;55.03;99461.50;7312211;19;130180;-40
2023/06/29 08:34:34;;;;;;;49.63;4.00;;;;;;;24.97;55.28;99462.00;7314334;19;129111;-39
2023/06/29 08:37:00;;;;;;;34.70;2.67;;;;;;;24.99;54.88;99454.78;7314476;19;129029;-40
2023/06/29 08:39:26;;;;;;;23.90;2.23;;;;;;;25.00;54.64;99456.41;7314673;19;130758;-39
2023/06/29 08:41:51;;;;;;;20.93;2.30;;;;;;;24.98;54.64;99453.13;7312092;19;131022;-40
2023/06/29 08:44:17;;;;;;;49.40;3.80;;;;;;;24.91;54.40;99439.81;7313953;19;129795;-40
2023/06/29 08:46:43;;;;;;;30.47;3.03;;;;;;;24.96;54.18;99448.03;7312264;19;129057;-40
2023/06/29 08:49:09;;;;;;;23.52;2.42;;;;;;;24.98;55.21;99448.69;7314580;19;131377;-39
2023/06/29 08:51:38;;;;;;;31.87;2.90;;;;;;;25.02;54.23;99449.19;7312656;19;129262;-40
2023/06/29 08:54:05;;;;;;;27.38;2.35;;;;;;;25.03;54.50;99456.91;7312375;19;129148;-39
2023/06/29 08:56:31;;;;;;;;;;;;;;;25.11;54.50;99448.19;7314135;19;129826;-39
2023/06/29 08:58:57;;;;;;;29.00;2.55;;;;;;;25.04;54.62;99449.84;7315044;19;129598;-38
2023/06/29 09:01:22;;;;;;;25.80;2.40;;;;;;;25.02;54.62;99450.03;7312004;19;129627;-39
2023/06/29 09:03:50;;;;;;;28.40;2.43;;;;;;;24.91;54.31;99429.28;7313704;19;128933;-41
2023/06/29 09:06:15;;;;;;;22.73;2.08;;;;;;;25.00;54.85;99445.91;7313430;19;129059;-40
2023/06/29 09:08:41;;;;;;;23.87;2.20;;;;;;;25.03;54.84;99442.94;7313467;19;131054;-39
2023/06/29 09:11:07;;;;;;;4.63;1.30;;;;;;;25.03;55.06;99435.03;7312423;19;129296;-38
2023/06/29 09:13:33;;;;;;;38.80;3.33;;;;;;;25.05;55.05;99439.16;7313810;19;129121;-41
2023/06/29 09:16:00;;;;;;;28.25;2.58;;;;;;;25.07;55.20;99436.38;7314467;19;128769;-41
2023/06/29 09:18:27;;;;;;;27.60;2.50;;;;;;;25.05;55.11;99439.16;7313439;19;130524;-40
2023/06/29 09:20:57;;;;;;;25.30;2.25;;;;;;;25.07;54.86;99431.09;7311729;19;129296;-40
2023/06/29 09:23:25;;;;;;;40.35;3.05;;;;;;;25.07;55.60;99423.22;7313203;19;129117;-42
2023/06/29 09:25:53;;;;;;;30.92;2.78;;;;;;;25.07;55.01;99431.09;7313875;19;128851;-42
2023/06/29 09:28:19;;;;;;;39.90;3.20;;;;;;;25.09;54.72;99434.41;7313522;19;129600;-42
2023/06/29 09:30:44;;;;;;;22.43;2.20;;;;;;;25.09;54.62;99434.41;7312518;19;129024;-42
2023/06/29 09:33:15;;;;;;;39.77;3.07;;;;;;;25.10;55.26;99431.59;7313578;19;129363;-41
2023/06/29 09:35:45;;;;;;;32.45;2.65;;;;;;;25.11;55.40;99432.41;7314236;19;129110;-41
2023/06/29 09:38:10;;;;;;;32.78;2.80;;;;;;;25.09;54.78;99429.13;7312327;19;129661;-41
2023/06/29 09:40:55;;;;;;;29.20;2.67;;;;;;;25.10;55.45;99420.25;7312344;19;129184;-42
2023/06/29 09:43:25;;;;;;;31.17;2.67;;;;;;;25.08;55.24;99422.22;7311819;19;129081;-41
2023/06/29 09:45:51;;;;;;;35.67;3.00;;;;;;;25.10;55.20;99417.63;7312769;19;128908;-41
2023/06/29 09:48:21;;;;;;;30.17;2.60;;;;;;;25.12;54.77;99411.19;7312407;19;129777;-41
2023/06/29 09:50:50;;;;;;;22.10;2.13;;;;;;;25.15;55.74;99415.31;7310986;19;130473;-40
2023/06/29 09:53:16;;;;;;;21.77;2.25;;;;;;;25.17;55.43;99408.88;7313880;19;129227;-42
2023/06/29 09:55:43;;;;;;;30.90;2.70;;;;;;;25.13;54.78;99406.75;7311109;19;129540;-41
2023/06/29 09:58:09;;;;;;;58.15;4.15;;;;;;;25.11;54.60;99412.19;7311870;19;129573;-39
2023/06/29 10:00:35;;;;;;;3.58;1.10;;;;;;;25.12;55.06;99405.13;7316568;19;131629;-41
2023/06/29 10:03:00;;;;;;;37.40;3.07;;;;;;;25.12;55.07;99413.00;7318143;19;129143;-40
2023/06/29 10:05:30;;;;;;;17.73;1.80;;;;;;;25.13;54.96;99398.84;7318111;19;130604;-43
2023/06/29 10:07:57;;;;;;;86.40;6.28;;;;;;;25.10;54.80;99400.03;7315329;19;130612;-41
2023/06/29 10:10:27;;;;;;;25.63;2.20;;;;;;;25.08;54.70;99404.63;7319047;19;130407;-40
2023/06/29 10:12:55;;;;;;;28.05;2.45;;;;;;;25.10;54.24;99401.81;7317480;19;129184;-37
2023/06/29 10:15:21;;;;;;;18.98;1.92;;;;;;;25.10;53.77;99399.19;7316061;19;129074;-42
2023/06/29 10:18:01;;;;;;;46.63;3.35;;;;;;;25.13;54.71;99391.78;7318252;19;129893;-40
2023/06/29 10:20:30;;;;;;;34.88;2.88;;;;;;;25.08;53.83;99385.38;7318628;19;131208;-40
2023/06/29 10:22:59;;;;;;;8.68;1.35;;;;;;;25.08;54.14;99390.66;7318837;19;128936;-37
2023/06/29 10:25:27;;;;;;;20.42;2.08;;;;;;;25.09;54.24;99394.94;7316329;19;129154;-42
2023/06/29 10:27:54;;;;;;;39.17;3.63;;;;;;;25.00;53.20;99374.88;7312427;19;131263;-41
2023/06/29 10:30:21;;;;;;;46.10;3.35;;;;;;;25.10;53.69;99383.41;7317284;19;130423;-39
2023/06/29 10:32:50;;;;;;;24.67;2.28;;;;;;;25.11;53.48;99377.16;7318535;19;129024;-39
2023/06/29 10:35:16;;;;;;;21.02;2.20;;;;;;;25.02;53.81;99365.00;7317481;19;128882;-40
2023/06/29 10:37:50;;;;;;;34.85;2.95;;;;;;;25.03;54.03;99356.13;7317896;19;130110;-41
2023/06/29 10:40:16;;;;;;;23.52;2.53;;;;;;;25.08;53.16;99370.44;7317385;19;129793;-42
2023/06/29 10:42:41;;;;;;;25.38;2.35;;;;;;;25.09;53.69;99372.06;7318456;19;129454;-41
2023/06/29 10:45:15;;;;;;;40.93;3.33;;;;;;;25.11;54.45;99364.00;7317037;19;129418;-41
2023/06/29 10:47:41;;;;;;;31.15;2.78;;;;;;;25.12;53.60;99365.66;7315160;19;129771;-42
2023/06/29 10:50:13;;;;;;;29.63;2.33;;;;;;;25.12;53.95;99363.81;7316960;19;129177;-41
2023/06/29 10:52:40;;;;;;;40.90;3.15;;;;;;;25.12;54.44;99366.47;7318304;19;129092;-42
2023/06/29 10:55:19;;;;;;;25.35;2.50;;;;;;;25.09;54.50;99347.59;7319253;19;128838;-41
2023/06/29 10:57:55;;;;;;;19.60;2.25;;;;;;;25.17;54.54;99358.09;7317197;19;129169;-41
2023/06/29 11:00:22;;;;;;;25.95;2.35;;;;;;;25.14;54.37;99353.97;7316517;19;130633;-39
2023/06/29 11:02:48;;;;;;;8.18;1.33;;;;;;;25.19;54.27;99350.81;7317011;19;128805;-40
2023/06/29 11:05:19;;;;;;;36.75;2.85;;;;;;;25.16;54.53;99354.63;7317459;19;129219;-42
2023/06/29 11:07:48;;;;;;;26.48;2.50;;;;;;;25.16;54.62;99346.72;7315897;19;129258;-41
2023/06/29 11:10:13;;;;;;;28.55;2.63;;;;;;;25.17;54.24;99352.81;7316209;19;129672;-40
2023/06/29 11:12:39;;;;;;;21.57;2.23;;;;;;;25.17;54.90;99350.19;7316867;19;128991;-38